createdAt,value
2018-10-18T00:00:12.388Z,82.04
2018-10-18T00:01:11.281Z,82.04
2018-10-18T00:02:11.330Z,81.93
2018-10-18T00:03:11.416Z,82.04
2018-10-18T00:04:11.246Z,82.34
2018-10-18T00:05:11.101Z,82.34
2018-10-18T00:06:12.321Z,82.14
2018-10-18T00:07:11.209Z,82.04
2018-10-18T00:08:12.465Z,82.14
2018-10-18T00:09:11.236Z,82.95
2018-10-18T00:10:11.189Z,82.54
2018-10-18T00:11:11.166Z,83.26
2018-10-18T00:12:11.166Z,83.26
2018-10-18T00:13:11.143Z,83.26
2018-10-18T00:14:11.241Z,83.26
2018-10-18T00:15:11.362Z,82.85
2018-10-18T00:16:11.123Z,83.06
2018-10-18T00:17:11.100Z,83.26
2018-10-18T00:18:11.237Z,83.46
2018-10-18T00:19:11.081Z,83.26
2018-10-18T00:20:11.161Z,83.56
2018-10-18T00:21:11.108Z,82.65
2018-10-18T00:22:12.087Z,83.26
2018-10-18T00:23:11.061Z,83.87
2018-10-18T00:24:11.128Z,83.15
2018-10-18T00:25:11.055Z,83.36
2018-10-18T00:26:11.171Z,83.26
2018-10-18T00:27:11.251Z,83.56
2018-10-18T00:28:10.996Z,83.46
2018-10-18T00:29:11.013Z,83.67
2018-10-18T00:30:11.036Z,83.91
2018-10-18T00:31:10.822Z,84.01
2018-10-18T00:32:11.000Z,84.01
2018-10-18T00:33:11.042Z,83.36
2018-10-18T00:34:10.921Z,83.91
2018-10-18T00:35:10.928Z,83.70
2018-10-18T00:36:10.982Z,83.67
2018-10-18T00:37:10.891Z,83.36
2018-10-18T00:38:10.978Z,83.87
2018-10-18T00:39:10.939Z,83.87
2018-10-18T00:40:10.870Z,83.46
2018-10-18T00:41:10.845Z,83.46
2018-10-18T00:42:10.839Z,83.46
2018-10-18T00:43:10.820Z,83.67
2018-10-18T00:44:10.902Z,84.07
2018-10-18T00:45:10.975Z,83.81
2018-10-18T00:46:10.801Z,84.38
2018-10-18T00:47:10.796Z,84.62
2018-10-18T00:48:10.912Z,84.72
2018-10-18T00:49:10.762Z,84.17
2018-10-18T00:50:10.887Z,84.48
2018-10-18T00:51:10.883Z,83.87
2018-10-18T00:52:10.860Z,85.03
2018-10-18T00:53:10.722Z,83.97
2018-10-18T00:54:10.848Z,83.76
2018-10-18T00:55:10.715Z,83.97
2018-10-18T00:56:10.779Z,84.07
2018-10-18T00:57:10.724Z,84.58
2018-10-18T00:58:10.662Z,84.68
2018-10-18T00:59:10.676Z,85.03
2018-10-18T01:00:10.748Z,84.72
2018-10-18T01:01:10.641Z,84.52
2018-10-18T01:02:10.682Z,84.21
2018-10-18T01:03:10.734Z,84.31
2018-10-18T01:04:10.610Z,84.11
2018-10-18T01:05:10.606Z,84.11
2018-10-18T01:06:10.607Z,84.31
2018-10-18T01:07:10.436Z,84.72
2018-10-18T01:08:10.630Z,84.82
2018-10-18T01:09:10.611Z,84.92
2018-10-18T01:10:10.574Z,83.81
2018-10-18T01:11:10.522Z,84.21
2018-10-18T01:12:10.587Z,83.97
2018-10-18T01:13:10.509Z,84.21
2018-10-18T01:14:10.589Z,84.42
2018-10-18T01:15:10.557Z,84.21
2018-10-18T01:16:10.476Z,84.28
2018-10-18T01:17:10.576Z,84.17
2018-10-18T01:18:10.576Z,84.52
2018-10-18T01:19:10.476Z,84.72
2018-10-18T01:20:10.523Z,84.52
2018-10-18T01:21:10.467Z,83.97
2018-10-18T01:22:10.415Z,84.01
2018-10-18T01:23:10.409Z,84.07
2018-10-18T01:24:10.452Z,83.97
2018-10-18T01:25:10.382Z,84.38
2018-10-18T01:26:10.407Z,83.87
2018-10-18T01:27:10.403Z,83.87
2018-10-18T01:28:10.344Z,83.87
2018-10-18T01:29:10.352Z,83.97
2018-10-18T01:30:10.352Z,84.28
2018-10-18T01:31:10.319Z,84.07
2018-10-18T01:32:10.411Z,83.97
2018-10-18T01:33:10.499Z,83.26
2018-10-18T01:34:10.269Z,83.76
2018-10-18T01:35:10.273Z,84.07
2018-10-18T01:36:10.389Z,84.11
2018-10-18T01:37:10.242Z,83.97
2018-10-18T01:38:10.415Z,83.67
2018-10-18T01:39:10.281Z,84.38
2018-10-18T01:40:10.176Z,84.07
2018-10-18T01:41:10.209Z,84.48
2018-10-18T01:42:10.201Z,84.21
2018-10-18T01:43:10.183Z,84.17
2018-10-18T01:44:10.262Z,84.48
2018-10-18T01:45:10.217Z,84.31
2018-10-18T01:46:10.157Z,84.48
2018-10-18T01:47:10.153Z,84.17
2018-10-18T01:48:10.285Z,84.17
2018-10-18T01:49:10.123Z,84.31
2018-10-18T01:50:10.190Z,84.42
2018-10-18T01:51:10.379Z,84.58
2018-10-18T01:52:10.098Z,84.62
2018-10-18T01:53:10.084Z,84.68
2018-10-18T01:54:10.205Z,84.68
2018-10-18T01:55:10.047Z,84.92
2018-10-18T01:56:10.088Z,85.13
2018-10-18T01:57:10.144Z,84.62
2018-10-18T01:58:10.022Z,84.82
2018-10-18T01:59:10.030Z,85.53
2018-10-18T02:00:10.168Z,85.33
2018-10-18T02:01:10.005Z,85.53
2018-10-18T02:02:10.066Z,85.33
2018-10-18T02:03:10.083Z,85.74
2018-10-18T02:04:09.955Z,85.33
2018-10-18T02:05:09.971Z,85.68
2018-10-18T02:06:10.056Z,85.53
2018-10-18T02:07:09.935Z,85.37
2018-10-18T02:08:09.869Z,85.78
2018-10-18T02:09:09.998Z,86.19
2018-10-18T02:10:09.893Z,86.19
2018-10-18T02:11:09.900Z,86.15
2018-10-18T02:12:09.908Z,85.64
2018-10-18T02:13:09.864Z,85.84
2018-10-18T02:14:09.881Z,85.84
2018-10-18T02:15:09.918Z,85.64
2018-10-18T02:16:09.829Z,85.84
2018-10-18T02:17:09.824Z,85.37
2018-10-18T02:18:09.888Z,85.53
2018-10-18T02:19:09.919Z,85.64
2018-10-18T02:20:09.790Z,85.68
2018-10-18T02:21:09.823Z,86.08
2018-10-18T02:22:09.764Z,85.98
2018-10-18T02:23:09.752Z,85.98
2018-10-18T02:24:09.929Z,86.29
2018-10-18T02:25:09.834Z,85.88
2018-10-18T02:26:09.722Z,86.29
2018-10-18T02:27:09.778Z,86.59
2018-10-18T02:28:09.716Z,86.29
2018-10-18T02:29:09.698Z,86.29
2018-10-18T02:30:09.842Z,86.08
2018-10-18T02:31:09.800Z,85.88
2018-10-18T02:32:09.663Z,86.29
2018-10-18T02:33:09.697Z,85.98
2018-10-18T02:34:09.650Z,85.98
2018-10-18T02:35:09.624Z,85.88
2018-10-18T02:36:09.706Z,86.08
2018-10-18T02:37:09.610Z,86.19
2018-10-18T02:38:09.596Z,86.49
2018-10-18T02:39:09.629Z,86.19
2018-10-18T02:40:09.582Z,86.19
2018-10-18T02:41:09.549Z,86.39
2018-10-18T02:42:10.618Z,86.90
2018-10-18T02:43:09.545Z,87.10
2018-10-18T02:44:09.546Z,87.24
2018-10-18T02:45:09.606Z,86.90
2018-10-18T02:46:09.504Z,87.35
2018-10-18T02:47:09.511Z,87.00
2018-10-18T02:48:09.553Z,87.30
2018-10-18T02:49:09.470Z,87.41
2018-10-18T02:50:09.467Z,87.24
2018-10-18T02:51:09.503Z,87.00
2018-10-18T02:52:09.464Z,86.83
2018-10-18T02:53:09.434Z,86.69
2018-10-18T02:54:09.456Z,87.14
2018-10-18T02:55:09.407Z,86.74
2018-10-18T02:56:09.402Z,87.45
2018-10-18T02:57:09.536Z,87.85
2018-10-18T02:58:09.384Z,87.55
2018-10-18T02:59:09.383Z,87.45
2018-10-18T03:00:09.399Z,87.45
2018-10-18T03:01:09.344Z,87.35
2018-10-18T03:02:09.343Z,88.16
2018-10-18T03:03:09.540Z,87.75
2018-10-18T03:04:09.308Z,87.65
2018-10-18T03:05:09.305Z,88.06
2018-10-18T03:06:09.300Z,87.96
2018-10-18T03:07:09.280Z,87.65
2018-10-18T03:08:09.272Z,87.85
2018-10-18T03:09:09.299Z,87.75
2018-10-18T03:10:09.256Z,87.85
2018-10-18T03:11:09.249Z,87.96
2018-10-18T03:12:09.264Z,87.85
2018-10-18T03:13:09.229Z,87.96
2018-10-18T03:14:09.221Z,87.65
2018-10-18T03:15:09.244Z,88.06
2018-10-18T03:16:09.241Z,87.65
2018-10-18T03:17:09.172Z,87.65
2018-10-18T03:18:09.274Z,88.06
2018-10-18T03:19:09.159Z,87.45
2018-10-18T03:20:09.137Z,87.85
2018-10-18T03:21:09.226Z,87.61
2018-10-18T03:22:09.118Z,87.24
2018-10-18T03:23:10.112Z,87.14
2018-10-18T03:24:09.155Z,87.24
2018-10-18T03:25:09.085Z,86.74
2018-10-18T03:26:09.072Z,86.69
2018-10-18T03:27:09.114Z,87.30
2018-10-18T03:28:09.061Z,87.45
2018-10-18T03:29:09.070Z,87.10
2018-10-18T03:30:09.176Z,87.41
2018-10-18T03:31:09.022Z,87.20
2018-10-18T03:32:08.906Z,87.10
2018-10-18T03:33:08.936Z,86.90
2018-10-18T03:34:08.986Z,87.10
2018-10-18T03:35:08.976Z,87.00
2018-10-18T03:36:09.214Z,87.10
2018-10-18T03:37:08.967Z,86.90
2018-10-18T03:38:08.852Z,87.00
2018-10-18T03:39:09.032Z,86.90
2018-10-18T03:40:08.930Z,87.10
2018-10-18T03:41:08.923Z,87.10
2018-10-18T03:42:08.862Z,86.90
2018-10-18T03:43:08.901Z,87.14
2018-10-18T03:44:08.907Z,87.35
2018-10-18T03:45:08.931Z,86.80
2018-10-18T03:46:08.863Z,87.51
2018-10-18T03:47:08.850Z,86.94
2018-10-18T03:48:08.905Z,87.20
2018-10-18T03:49:08.828Z,87.41
2018-10-18T03:50:08.811Z,87.20
2018-10-18T03:51:08.854Z,87.20
2018-10-18T03:52:08.797Z,87.00
2018-10-18T03:53:08.816Z,87.10
2018-10-18T03:54:08.820Z,87.10
2018-10-18T03:55:08.770Z,87.14
2018-10-18T03:56:08.772Z,87.10
2018-10-18T03:57:08.808Z,87.35
2018-10-18T03:58:08.724Z,87.30
2018-10-18T03:59:08.750Z,87.45
2018-10-18T04:00:08.740Z,86.94
2018-10-18T04:01:08.696Z,87.30
2018-10-18T04:02:08.684Z,87.41
2018-10-18T04:03:08.821Z,87.00
2018-10-18T04:04:08.674Z,87.04
2018-10-18T04:05:08.657Z,87.04
2018-10-18T04:06:08.759Z,87.14
2018-10-18T04:07:08.641Z,87.00
2018-10-18T04:08:08.621Z,86.83
2018-10-18T04:09:08.720Z,86.90
2018-10-18T04:10:08.604Z,87.20
2018-10-18T04:11:08.582Z,86.94
2018-10-18T04:12:08.720Z,86.69
2018-10-18T04:13:08.476Z,86.39
2018-10-18T04:14:08.578Z,86.80
2018-10-18T04:15:08.603Z,87.00
2018-10-18T04:16:08.531Z,86.80
2018-10-18T04:17:08.520Z,85.78
2018-10-18T04:18:08.627Z,85.37
2018-10-18T04:19:08.508Z,85.98
2018-10-18T04:20:08.484Z,85.53
2018-10-18T04:21:08.543Z,84.62
2018-10-18T04:22:08.458Z,84.62
2018-10-18T04:23:08.458Z,85.78
2018-10-18T04:24:08.472Z,85.98
2018-10-18T04:25:08.447Z,85.78
2018-10-18T04:26:08.434Z,85.58
2018-10-18T04:27:08.490Z,85.37
2018-10-18T04:28:08.405Z,85.33
2018-10-18T04:29:08.281Z,85.53
2018-10-18T04:30:08.479Z,85.03
2018-10-18T04:31:08.365Z,85.53
2018-10-18T04:32:08.369Z,84.72
2018-10-18T04:33:08.419Z,85.23
2018-10-18T04:34:08.391Z,85.13
2018-10-18T04:35:08.330Z,85.17
2018-10-18T04:36:08.340Z,84.45
2018-10-18T04:37:08.309Z,84.66
2018-10-18T04:38:08.405Z,85.88
2018-10-18T04:39:08.350Z,84.97
2018-10-18T04:40:08.258Z,84.97
2018-10-18T04:41:08.254Z,84.97
2018-10-18T04:42:08.297Z,84.97
2018-10-18T04:43:08.237Z,84.86
2018-10-18T04:44:08.274Z,85.27
2018-10-18T04:45:08.277Z,84.97
2018-10-18T04:46:08.212Z,84.97
2018-10-18T04:47:08.327Z,84.97
2018-10-18T04:48:08.244Z,84.76
2018-10-18T04:49:08.174Z,84.76
2018-10-18T04:50:08.208Z,84.76
2018-10-18T04:51:08.218Z,84.97
2018-10-18T04:52:08.158Z,84.86
2018-10-18T04:53:08.125Z,86.13
2018-10-18T04:54:08.114Z,85.47
2018-10-18T04:55:08.178Z,85.47
2018-10-18T04:56:08.097Z,85.51
2018-10-18T04:57:08.129Z,85.82
2018-10-18T04:58:08.083Z,85.41
2018-10-18T04:59:08.106Z,86.13
2018-10-18T05:00:08.067Z,86.22
2018-10-18T05:01:08.165Z,86.53
2018-10-18T05:02:08.055Z,86.47
2018-10-18T05:03:08.098Z,86.77
2018-10-18T05:04:08.018Z,87.49
2018-10-18T05:05:08.001Z,87.59
2018-10-18T05:06:07.989Z,86.98
2018-10-18T05:07:08.069Z,87.49
2018-10-18T05:08:07.965Z,87.38
2018-10-18T05:09:08.231Z,86.98
2018-10-18T05:10:07.958Z,87.29
2018-10-18T05:11:08.953Z,87.18
2018-10-18T05:12:14.952Z,87.08
2018-10-18T05:13:08.004Z,87.49
2018-10-18T05:14:07.964Z,87.69
2018-10-18T05:15:08.216Z,87.69
2018-10-18T05:16:07.897Z,87.49
2018-10-18T05:17:08.871Z,87.38
2018-10-18T05:18:07.872Z,86.68
2018-10-18T05:19:07.893Z,87.69
2018-10-18T05:20:07.837Z,87.08
2018-10-18T05:21:07.932Z,87.90
2018-10-18T05:22:07.819Z,88.20
2018-10-18T05:23:07.832Z,87.94
2018-10-18T05:24:07.674Z,88.31
2018-10-18T05:25:07.837Z,88.20
2018-10-18T05:26:07.780Z,88.10
2018-10-18T05:27:08.149Z,88.10
2018-10-18T05:28:07.618Z,88.10
2018-10-18T05:29:07.611Z,88.00
2018-10-18T05:30:07.720Z,88.00
2018-10-18T05:31:07.800Z,88.10
2018-10-18T05:32:07.642Z,87.90
2018-10-18T05:33:07.591Z,88.24
2018-10-18T05:34:07.696Z,88.96
2018-10-18T05:35:07.676Z,89.16
2018-10-18T05:36:07.678Z,88.96
2018-10-18T05:37:07.558Z,88.75
2018-10-18T05:38:07.781Z,88.96
2018-10-18T05:39:07.635Z,89.06
2018-10-18T05:40:07.629Z,88.75
2018-10-18T05:41:08.643Z,89.06
2018-10-18T05:42:08.615Z,89.26
2018-10-18T05:43:07.674Z,89.16
2018-10-18T05:44:07.635Z,88.85
2018-10-18T05:45:07.559Z,88.85
2018-10-18T05:46:08.592Z,88.79
2018-10-18T05:47:08.611Z,88.85
2018-10-18T05:48:08.566Z,88.90
2018-10-18T05:49:08.595Z,89.20
2018-10-18T05:50:07.669Z,89.30
2018-10-18T05:51:08.526Z,89.61
2018-10-18T05:52:08.493Z,89.40
2018-10-18T05:53:08.572Z,88.79
2018-10-18T05:54:07.548Z,89.51
2018-10-18T05:55:08.552Z,89.30
2018-10-18T05:56:07.478Z,89.40
2018-10-18T05:57:08.432Z,89.20
2018-10-18T05:58:07.435Z,89.47
2018-10-18T05:59:07.480Z,89.00
2018-10-18T06:00:07.700Z,89.30
2018-10-18T06:01:07.640Z,89.06
2018-10-18T06:02:07.383Z,89.00
2018-10-18T06:03:07.358Z,89.00
2018-10-18T06:04:07.360Z,89.10
2018-10-18T06:05:08.348Z,88.79
2018-10-18T06:06:07.382Z,89.20
2018-10-18T06:07:07.418Z,89.20
2018-10-18T06:08:08.322Z,88.85
2018-10-18T06:09:08.300Z,88.96
2018-10-18T06:10:07.252Z,89.00
2018-10-18T06:11:07.273Z,89.10
2018-10-18T06:12:07.378Z,89.10
2018-10-18T06:13:07.315Z,89.00
2018-10-18T06:14:07.247Z,89.30
2018-10-18T06:15:07.236Z,89.92
2018-10-18T06:16:07.227Z,89.61
2018-10-18T06:17:07.333Z,89.86
2018-10-18T06:18:07.204Z,89.45
2018-10-18T06:19:07.232Z,90.67
2018-10-18T06:20:07.189Z,90.36
2018-10-18T06:21:07.161Z,90.12
2018-10-18T06:22:07.170Z,90.47
2018-10-18T06:23:07.285Z,90.06
2018-10-18T06:24:07.122Z,90.16
2018-10-18T06:25:08.201Z,90.88
2018-10-18T06:26:08.126Z,90.98
2018-10-18T06:27:07.102Z,90.67
2018-10-18T06:28:07.105Z,90.98
2018-10-18T06:29:07.151Z,90.98
2018-10-18T06:30:06.936Z,90.98
2018-10-18T06:31:07.115Z,90.67
2018-10-18T06:32:07.056Z,90.47
2018-10-18T06:33:07.106Z,91.08
2018-10-18T06:34:07.053Z,91.18
2018-10-18T06:35:07.240Z,91.28
2018-10-18T06:36:08.013Z,90.67
2018-10-18T06:37:08.043Z,90.67
2018-10-18T06:38:07.980Z,90.77
2018-10-18T06:39:06.996Z,90.47
2018-10-18T06:40:08.003Z,90.57
2018-10-18T06:41:07.267Z,90.77
2018-10-18T06:42:07.968Z,91.28
2018-10-18T06:43:07.999Z,91.39
2018-10-18T06:44:06.929Z,90.88
2018-10-18T06:45:06.919Z,91.22
2018-10-18T06:46:07.911Z,91.18
2018-10-18T06:47:07.045Z,91.08
2018-10-18T06:48:06.915Z,90.67
2018-10-18T06:49:08.010Z,91.18
2018-10-18T06:50:06.859Z,90.88
2018-10-18T06:51:07.919Z,90.67
2018-10-18T06:52:06.898Z,90.98
2018-10-18T06:53:07.828Z,90.67
2018-10-18T06:54:06.840Z,90.77
2018-10-18T06:55:06.849Z,90.98
2018-10-18T06:56:06.797Z,90.67
2018-10-18T06:57:06.784Z,90.88
2018-10-18T06:58:06.829Z,90.98
2018-10-18T06:59:06.761Z,90.36
2018-10-18T07:00:06.768Z,90.77
2018-10-18T07:01:06.720Z,89.65
2018-10-18T07:02:06.729Z,89.61
2018-10-18T07:03:06.715Z,89.00
2018-10-18T07:04:06.767Z,89.51
2018-10-18T07:05:06.691Z,89.10
2018-10-18T07:06:06.752Z,88.24
2018-10-18T07:07:06.649Z,88.08
2018-10-18T07:08:06.644Z,88.28
2018-10-18T07:09:07.663Z,88.18
2018-10-18T07:10:06.725Z,88.08
2018-10-18T07:11:06.659Z,88.04
2018-10-18T07:12:06.663Z,88.08
2018-10-18T07:13:06.490Z,88.14
2018-10-18T07:14:07.310Z,87.57
2018-10-18T07:15:06.701Z,88.08
2018-10-18T07:16:06.570Z,88.24
2018-10-18T07:17:06.558Z,87.08
2018-10-18T07:18:06.673Z,87.08
2018-10-18T07:19:06.504Z,87.02
2018-10-18T07:20:07.499Z,87.32
2018-10-18T07:21:06.579Z,86.82
2018-10-18T07:22:06.519Z,87.49
2018-10-18T07:23:07.502Z,87.23
2018-10-18T07:24:06.635Z,86.92
2018-10-18T07:25:07.571Z,87.02
2018-10-18T07:26:06.603Z,87.32
2018-10-18T07:27:06.454Z,87.53
2018-10-18T07:28:06.433Z,88.08
2018-10-18T07:29:07.439Z,87.77
2018-10-18T07:30:06.511Z,88.18
2018-10-18T07:31:06.441Z,88.28
2018-10-18T07:32:06.388Z,88.53
2018-10-18T07:33:06.362Z,89.30
2018-10-18T07:34:07.396Z,89.20
2018-10-18T07:35:06.515Z,89.20
2018-10-18T07:36:07.418Z,89.04
2018-10-18T07:37:06.400Z,89.25
2018-10-18T07:38:06.330Z,89.14
2018-10-18T07:39:06.314Z,89.04
2018-10-18T07:40:06.179Z,89.55
2018-10-18T07:41:06.354Z,89.04
2018-10-18T07:42:06.380Z,88.93
2018-10-18T07:43:06.328Z,89.14
2018-10-18T07:44:06.687Z,88.84
2018-10-18T07:45:06.251Z,88.79
2018-10-18T07:46:06.265Z,88.18
2018-10-18T07:47:07.256Z,87.84
2018-10-18T07:48:06.245Z,87.73
2018-10-18T07:49:06.267Z,87.29
2018-10-18T07:50:06.201Z,86.57
2018-10-18T07:51:06.201Z,85.96
2018-10-18T07:52:06.166Z,85.82
2018-10-18T07:53:06.273Z,84.50
2018-10-18T07:54:06.264Z,84.80
2018-10-18T07:55:06.300Z,84.25
2018-10-18T07:56:06.135Z,84.19
2018-10-18T07:57:06.109Z,84.50
2018-10-18T07:58:07.093Z,85.31
2018-10-18T07:59:06.111Z,85.35
2018-10-18T08:00:06.162Z,86.27
2018-10-18T08:01:06.112Z,85.61
2018-10-18T08:02:06.071Z,85.05
2018-10-18T08:03:06.050Z,86.06
2018-10-18T08:04:06.046Z,85.96
2018-10-18T08:05:06.027Z,85.96
2018-10-18T08:06:06.051Z,86.57
2018-10-18T08:07:06.086Z,87.23
2018-10-18T08:08:06.016Z,86.98
2018-10-18T08:09:06.004Z,86.37
2018-10-18T08:10:06.088Z,86.47
2018-10-18T08:11:06.026Z,86.02
2018-10-18T08:12:05.967Z,84.70
2018-10-18T08:13:06.211Z,85.21
2018-10-18T08:14:05.939Z,85.37
2018-10-18T08:15:05.998Z,84.39
2018-10-18T08:16:05.793Z,84.66
2018-10-18T08:17:06.018Z,84.80
2018-10-18T08:18:05.879Z,84.45
2018-10-18T08:19:06.032Z,84.72
2018-10-18T08:20:05.745Z,84.01
2018-10-18T08:21:05.880Z,84.05
2018-10-18T08:22:05.852Z,84.97
2018-10-18T08:23:05.858Z,84.66
2018-10-18T08:24:05.830Z,85.37
2018-10-18T08:25:06.843Z,85.37
2018-10-18T08:26:05.823Z,85.88
2018-10-18T08:27:05.811Z,85.41
2018-10-18T08:28:05.794Z,86.02
2018-10-18T08:29:05.785Z,86.83
2018-10-18T08:30:05.772Z,86.94
2018-10-18T08:31:05.864Z,86.98
2018-10-18T08:32:05.755Z,87.24
2018-10-18T08:33:05.719Z,86.53
2018-10-18T08:34:05.735Z,86.33
2018-10-18T08:35:05.712Z,86.33
2018-10-18T08:36:06.725Z,85.82
2018-10-18T08:37:05.892Z,86.53
2018-10-18T08:38:05.723Z,86.33
2018-10-18T08:39:05.665Z,85.47
2018-10-18T08:40:05.699Z,84.52
2018-10-18T08:41:05.662Z,84.21
2018-10-18T08:42:05.627Z,84.72
2018-10-18T08:43:05.785Z,83.70
2018-10-18T08:44:05.748Z,84.42
2018-10-18T08:45:05.472Z,84.45
2018-10-18T08:46:05.582Z,84.66
2018-10-18T08:47:05.585Z,84.56
2018-10-18T08:48:05.578Z,84.66
2018-10-18T08:49:05.649Z,84.56
2018-10-18T08:50:05.636Z,84.01
2018-10-18T08:51:05.576Z,82.85
2018-10-18T08:52:05.513Z,82.00
2018-10-18T08:53:05.508Z,82.31
2018-10-18T08:54:05.511Z,80.50
2018-10-18T08:55:05.668Z,79.79
2018-10-18T08:56:06.554Z,79.90
2018-10-18T08:57:05.334Z,79.14
2018-10-18T08:58:05.459Z,77.69
2018-10-18T08:59:05.467Z,75.55
2018-10-18T09:00:05.452Z,72.81
2018-10-18T09:01:05.568Z,71.67
2018-10-18T09:02:05.412Z,71.60
2018-10-18T09:03:05.415Z,71.64
2018-10-18T09:04:05.411Z,72.58
2018-10-18T09:05:05.382Z,72.28
2018-10-18T09:06:05.384Z,73.29
2018-10-18T09:07:05.528Z,72.48
2018-10-18T09:08:05.356Z,72.81
2018-10-18T09:09:05.369Z,74.30
2018-10-18T09:10:05.378Z,72.48
2018-10-18T09:11:05.321Z,73.32
2018-10-18T09:12:05.307Z,72.92
2018-10-18T09:13:05.462Z,74.10
2018-10-18T09:14:05.295Z,74.95
2018-10-18T09:15:05.142Z,75.76
2018-10-18T09:16:05.335Z,76.06
2018-10-18T09:17:05.240Z,75.66
2018-10-18T09:18:05.240Z,75.76
2018-10-18T09:19:05.172Z,76.10
2018-10-18T09:20:05.221Z,77.99
2018-10-18T09:21:05.219Z,78.13
2018-10-18T09:22:05.209Z,80.26
2018-10-18T09:23:05.194Z,80.10
2018-10-18T09:24:05.189Z,80.40
2018-10-18T09:25:05.306Z,81.72
2018-10-18T09:26:05.158Z,80.13
2018-10-18T09:27:06.153Z,80.64
2018-10-18T09:28:06.171Z,81.19
2018-10-18T09:29:05.113Z,83.22
2018-10-18T09:30:06.168Z,82.65
2018-10-18T09:31:05.222Z,83.81
2018-10-18T09:32:05.091Z,85.58
2018-10-18T09:33:05.082Z,87.10
2018-10-18T09:34:06.078Z,88.73
2018-10-18T09:35:06.039Z,87.92
2018-10-18T09:36:06.053Z,88.93
2018-10-18T09:37:05.118Z,90.60
2018-10-18T09:38:05.028Z,89.64
2018-10-18T09:39:05.004Z,90.36
2018-10-18T09:40:06.063Z,90.56
2018-10-18T09:41:04.995Z,91.13
2018-10-18T09:42:04.978Z,90.56
2018-10-18T09:43:05.050Z,91.53
2018-10-18T09:44:04.978Z,90.83
2018-10-18T09:45:04.951Z,90.83
2018-10-18T09:46:05.945Z,90.86
2018-10-18T09:47:04.918Z,90.60
2018-10-18T09:48:04.919Z,90.91
2018-10-18T09:49:05.086Z,90.46
2018-10-18T09:50:04.777Z,91.38
2018-10-18T09:51:04.893Z,89.34
2018-10-18T09:52:04.869Z,91.38
2018-10-18T09:53:04.745Z,90.50
2018-10-18T09:54:04.850Z,91.31
2018-10-18T09:55:05.072Z,90.60
2018-10-18T09:56:04.864Z,90.50
2018-10-18T09:57:04.825Z,90.85
2018-10-18T09:58:04.802Z,91.05
2018-10-18T09:59:04.792Z,91.46
2018-10-18T10:00:04.790Z,91.77
2018-10-18T10:01:05.050Z,92.07
2018-10-18T10:02:04.762Z,92.38
2018-10-18T10:03:04.761Z,92.68
2018-10-18T10:04:04.796Z,93.45
2018-10-18T10:05:04.724Z,93.66
2018-10-18T10:06:04.744Z,93.76
2018-10-18T10:07:04.801Z,93.55
2018-10-18T10:08:04.697Z,93.55
2018-10-18T10:09:04.693Z,93.76
2018-10-18T10:10:04.753Z,94.63
2018-10-18T10:11:04.686Z,94.02
2018-10-18T10:12:04.647Z,93.92
2018-10-18T10:13:05.729Z,93.41
2018-10-18T10:14:04.638Z,93.86
2018-10-18T10:15:04.620Z,93.31
2018-10-18T10:16:04.611Z,93.66
2018-10-18T10:17:04.651Z,93.82
2018-10-18T10:18:04.474Z,94.08
2018-10-18T10:19:04.691Z,93.98
2018-10-18T10:20:04.578Z,93.57
2018-10-18T10:21:04.442Z,93.47
2018-10-18T10:22:05.546Z,92.65
2018-10-18T10:23:04.556Z,92.76
2018-10-18T10:24:04.515Z,93.37
2018-10-18T10:25:04.597Z,93.43
2018-10-18T10:26:05.515Z,92.96
2018-10-18T10:27:04.505Z,92.65
2018-10-18T10:28:04.496Z,92.76
2018-10-18T10:29:04.473Z,92.55
2018-10-18T10:30:04.467Z,92.86
2018-10-18T10:31:04.559Z,93.06
2018-10-18T10:32:04.448Z,93.47
2018-10-18T10:33:04.608Z,93.57
2018-10-18T10:34:04.422Z,93.47
2018-10-18T10:35:04.436Z,92.45
2018-10-18T10:36:04.420Z,92.04
2018-10-18T10:37:04.607Z,91.48
2018-10-18T10:38:04.377Z,91.93
2018-10-18T10:39:05.426Z,91.72
2018-10-18T10:40:04.365Z,92.23
2018-10-18T10:41:04.370Z,91.83
2018-10-18T10:42:04.249Z,92.54
2018-10-18T10:43:04.530Z,91.83
2018-10-18T10:44:04.386Z,91.66
2018-10-18T10:45:04.354Z,92.27
2018-10-18T10:46:04.354Z,92.07
2018-10-18T10:47:04.328Z,92.48
2018-10-18T10:48:04.364Z,92.99
2018-10-18T10:49:04.700Z,93.09
2018-10-18T10:50:04.349Z,92.99
2018-10-18T10:51:04.322Z,92.79
2018-10-18T10:52:04.313Z,93.50
2018-10-18T10:53:04.233Z,93.25
2018-10-18T10:54:04.226Z,92.84
2018-10-18T10:55:04.243Z,92.44
2018-10-18T10:56:04.204Z,92.44
2018-10-18T10:57:04.246Z,92.33
2018-10-18T10:58:04.224Z,92.23
2018-10-18T10:59:04.189Z,92.23
2018-10-18T11:00:04.190Z,92.64
2018-10-18T11:01:04.179Z,93.35
2018-10-18T11:02:04.155Z,91.72
2018-10-18T11:03:04.144Z,91.68
2018-10-18T11:04:04.115Z,92.19
2018-10-18T11:05:04.090Z,92.40
2018-10-18T11:06:04.258Z,91.78
2018-10-18T11:07:04.128Z,91.93
2018-10-18T11:08:04.104Z,92.54
2018-10-18T11:09:04.074Z,91.42
2018-10-18T11:10:05.055Z,91.99
2018-10-18T11:11:04.023Z,91.72
2018-10-18T11:12:04.131Z,91.93
2018-10-18T11:13:04.288Z,92.44
2018-10-18T11:14:05.079Z,92.84
2018-10-18T11:15:04.032Z,92.84
2018-10-18T11:16:03.973Z,93.55
2018-10-18T11:17:03.884Z,93.62
2018-10-18T11:18:05.008Z,93.55
2018-10-18T11:19:04.026Z,92.80
2018-10-18T11:20:03.984Z,92.80
2018-10-18T11:21:04.022Z,92.29
2018-10-18T11:22:03.922Z,92.03
2018-10-18T11:23:03.893Z,93.05
2018-10-18T11:24:03.977Z,92.74
2018-10-18T11:25:03.932Z,93.66
2018-10-18T11:26:03.858Z,93.51
2018-10-18T11:27:03.937Z,92.64
2018-10-18T11:28:03.837Z,92.44
2018-10-18T11:29:03.856Z,92.13
2018-10-18T11:30:03.879Z,92.27
2018-10-18T11:31:04.737Z,92.94
2018-10-18T11:32:03.925Z,93.66
2018-10-18T11:33:03.799Z,93.01
2018-10-18T11:34:03.772Z,93.63
2018-10-18T11:35:03.611Z,92.47
2018-10-18T11:36:03.685Z,91.65
2018-10-18T11:37:03.656Z,91.49
2018-10-18T11:38:03.680Z,91.29
2018-10-18T11:39:03.586Z,92.16
2018-10-18T11:40:03.591Z,92.02
2018-10-18T11:41:03.570Z,89.66
2018-10-18T11:42:03.785Z,90.42
2018-10-18T11:43:03.735Z,91.31
2018-10-18T11:44:03.687Z,91.72
2018-10-18T11:45:03.648Z,91.72
2018-10-18T11:46:03.637Z,92.54
2018-10-18T11:47:03.640Z,92.84
2018-10-18T11:48:03.560Z,92.94
2018-10-18T11:49:03.685Z,92.64
2018-10-18T11:50:03.679Z,92.84
2018-10-18T11:51:03.466Z,93.05
2018-10-18T11:52:04.737Z,92.84
2018-10-18T11:53:03.569Z,93.05
2018-10-18T11:54:03.628Z,93.05
2018-10-18T11:55:03.627Z,92.03
2018-10-18T11:56:03.598Z,91.83
2018-10-18T11:57:03.535Z,91.78
2018-10-18T11:58:03.521Z,91.99
2018-10-18T11:59:03.562Z,92.04
2018-10-18T12:00:03.496Z,92.55
2018-10-18T12:01:03.601Z,92.91
2018-10-18T12:02:03.452Z,91.90
2018-10-18T12:03:03.334Z,91.60
2018-10-18T12:04:03.461Z,91.69
2018-10-18T12:05:03.371Z,91.29
2018-10-18T12:06:03.461Z,91.14
2018-10-18T12:07:03.408Z,90.84
2018-10-18T12:08:03.334Z,90.53
2018-10-18T12:09:03.273Z,89.05
2018-10-18T12:10:03.262Z,89.83
2018-10-18T12:11:03.434Z,89.42
2018-10-18T12:12:03.379Z,89.42
2018-10-18T12:13:03.416Z,89.22
2018-10-18T12:14:03.482Z,89.42
2018-10-18T12:15:03.324Z,88.91
2018-10-18T12:16:03.345Z,88.71
2018-10-18T12:17:03.200Z,89.28
2018-10-18T12:18:03.312Z,87.61
2018-10-18T12:19:03.400Z,87.24
2018-10-18T12:20:04.209Z,88.06
2018-10-18T12:21:03.131Z,87.51
2018-10-18T12:22:03.256Z,87.40
2018-10-18T12:23:03.149Z,87.00
2018-10-18T12:24:03.214Z,86.90
2018-10-18T12:25:03.144Z,87.20
2018-10-18T12:26:03.155Z,87.51
2018-10-18T12:27:03.120Z,86.65
2018-10-18T12:28:03.071Z,86.90
2018-10-18T12:29:03.069Z,86.08
2018-10-18T12:30:03.034Z,86.59
2018-10-18T12:31:03.068Z,87.26
2018-10-18T12:32:03.075Z,87.37
2018-10-18T12:33:04.039Z,86.86
2018-10-18T12:34:03.018Z,85.33
2018-10-18T12:35:03.003Z,85.38
2018-10-18T12:36:02.984Z,85.78
2018-10-18T12:37:03.005Z,86.94
2018-10-18T12:38:02.947Z,86.88
2018-10-18T12:39:03.001Z,87.18
2018-10-18T12:40:02.954Z,88.91
2018-10-18T12:41:03.122Z,87.84
2018-10-18T12:42:03.006Z,89.31
2018-10-18T12:43:02.934Z,89.62
2018-10-18T12:44:02.944Z,89.05
2018-10-18T12:45:02.874Z,90.27
2018-10-18T12:46:02.986Z,90.83
2018-10-18T12:47:02.842Z,90.83
2018-10-18T12:48:02.908Z,90.46
2018-10-18T12:49:02.865Z,90.46
2018-10-18T12:50:02.829Z,91.01
2018-10-18T12:51:02.805Z,91.72
2018-10-18T12:52:02.796Z,91.42